Larto, Louisiana
Current Conditions -  °F | °C
As of 10:53 AM on Sunday 23 Nov 2014 (Local Time) from KESF Reporting Station
Overcast Overcast  
Wind Chill: 65°   Ceiling: 1700
Heat Index: 65°   Visibility: 10mi
Dew Point: 59°   Wind: 15mph
Humidity: 81%   Direction: 230°SW
Pressure: 29.6"   Gusts: 26mph
Location:  31.5028°N, 91.9028°W
Report Text: KESF 231653Z AUTO 23013G23KT 10SM OVC017 18/15 A2960 RMK AO2 SLP021 T01830150
Loading
Personal Weather Stations






























Interactive Weather Map New forecast layout! Learn more

10-Day Weather Forecast

Advertisements
Track Severe Weather on mobile